sensor_id;sensor_type;location;lat;lon;timestamp;pressure;altitude;pressure_sealevel;temperature;humidity
929;BME280;451;47.988;7.842;2023-08-30T00:08:30;97935.47;;;13.99;100.00
929;BME280;451;47.988;7.842;2023-08-30T00:17:35;97946.88;;;13.67;100.00
929;BME280;451;47.988;7.842;2023-08-30T00:26:39;97930.41;;;13.45;100.00
929;BME280;451;47.988;7.842;2023-08-30T00:35:43;97939.53;;;13.43;100.00
929;BME280;451;47.988;7.842;2023-08-30T00:44:47;97900.72;;;13.23;100.00
929;BME280;451;47.988;7.842;2023-08-30T00:53:51;97911.72;;;13.40;100.00
929;BME280;451;47.988;7.842;2023-08-30T01:02:56;97912.88;;;13.24;100.00
929;BME280;451;47.988;7.842;2023-08-30T01:12:05;97902.94;;;13.13;100.00
929;BME280;451;47.988;7.842;2023-08-30T01:21:18;97865.50;;;12.90;100.00
929;BME280;451;47.988;7.842;2023-08-30T01:30:26;97856.56;;;12.78;100.00
929;BME280;451;47.988;7.842;2023-08-30T01:39:31;97889.06;;;12.98;100.00
929;BME280;451;47.988;7.842;2023-08-30T01:48:36;97894.38;;;13.05;100.00
929;BME280;451;47.988;7.842;2023-08-30T01:57:40;97877.50;;;12.92;100.00
929;BME280;451;47.988;7.842;2023-08-30T02:06:48;97892.91;;;12.89;100.00
929;BME280;451;47.988;7.842;2023-08-30T02:15:55;97883.81;;;12.98;100.00
929;BME280;451;47.988;7.842;2023-08-30T02:25:01;97880.31;;;12.91;100.00
929;BME280;451;47.988;7.842;2023-08-30T02:34:06;97882.50;;;12.68;100.00
929;BME280;451;47.988;7.842;2023-08-30T02:43:10;97879.81;;;12.55;100.00
929;BME280;451;47.988;7.842;2023-08-30T02:52:14;97862.94;;;12.42;100.00
929;BME280;451;47.988;7.842;2023-08-30T03:01:18;97907.31;;;12.39;100.00
929;BME280;451;47.988;7.842;2023-08-30T03:10:24;97880.75;;;12.40;100.00
929;BME280;451;47.988;7.842;2023-08-30T03:19:30;97812.91;;;12.08;100.00
929;BME280;451;47.988;7.842;2023-08-30T03:28:33;97857.28;;;12.52;100.00
929;BME280;451;47.988;7.842;2023-08-30T03:37:38;97861.06;;;12.30;100.00
929;BME280;451;47.988;7.842;2023-08-30T03:46:41;97849.47;;;12.24;100.00
929;BME280;451;47.988;7.842;2023-08-30T03:55:46;97852.44;;;12.15;100.00
929;BME280;451;47.988;7.842;2023-08-30T04:04:49;97865.94;;;12.39;100.00
929;BME280;451;47.988;7.842;2023-08-30T04:13:54;97874.25;;;12.36;100.00
929;BME280;451;47.988;7.842;2023-08-30T04:22:57;97882.94;;;12.37;100.00
929;BME280;451;47.988;7.842;2023-08-30T04:32:04;97868.53;;;12.74;100.00
929;BME280;451;47.988;7.842;2023-08-30T04:41:07;97815.16;;;12.11;100.00
929;BME280;451;47.988;7.842;2023-08-30T04:50:13;97875.69;;;12.39;100.00
929;BME280;451;47.988;7.842;2023-08-30T04:59:17;97875.75;;;12.59;100.00
929;BME280;451;47.988;7.842;2023-08-30T05:08:24;97886.47;;;12.50;100.00
929;BME280;451;47.988;7.842;2023-08-30T05:17:27;97865.63;;;12.69;100.00
929;BME280;451;47.988;7.842;2023-08-30T05:26:33;97889.47;;;12.95;100.00
929;BME280;451;47.988;7.842;2023-08-30T05:35:36;97880.16;;;12.99;100.00
929;BME280;451;47.988;7.842;2023-08-30T05:44:49;97881.75;;;13.07;100.00
929;BME280;451;47.988;7.842;2023-08-30T05:53:52;97887.72;;;13.28;100.00
929;BME280;451;47.988;7.842;2023-08-30T06:02:57;97881.84;;;13.79;100.00
929;BME280;451;47.988;7.842;2023-08-30T06:12:00;97883.69;;;13.79;100.00
929;BME280;451;47.988;7.842;2023-08-30T06:21:05;97887.50;;;14.09;100.00
929;BME280;451;47.988;7.842;2023-08-30T06:30:09;97880.59;;;14.01;100.00
929;BME280;451;47.988;7.842;2023-08-30T06:39:17;97891.16;;;14.01;100.00
929;BME280;451;47.988;7.842;2023-08-30T06:48:21;97869.94;;;14.28;100.00
929;BME280;451;47.988;7.842;2023-08-30T06:57:25;97873.84;;;14.76;100.00
929;BME280;451;47.988;7.842;2023-08-30T07:06:28;97885.66;;;15.12;100.00
929;BME280;451;47.988;7.842;2023-08-30T07:15:34;97881.03;;;15.63;100.00
929;BME280;451;47.988;7.842;2023-08-30T07:24:37;97856.19;;;15.83;100.00
929;BME280;451;47.988;7.842;2023-08-30T07:33:42;97867.56;;;17.11;98.50
929;BME280;451;47.988;7.842;2023-08-30T07:42:45;97868.22;;;17.36;93.71
929;BME280;451;47.988;7.842;2023-08-30T07:51:49;97856.72;;;18.00;90.46
929;BME280;451;47.988;7.842;2023-08-30T08:00:53;97850.50;;;18.58;81.19
929;BME280;451;47.988;7.842;2023-08-30T08:09:58;97812.91;;;17.91;81.29
929;BME280;451;47.988;7.842;2023-08-30T08:19:01;97845.84;;;19.55;73.92
929;BME280;451;47.988;7.842;2023-08-30T08:28:06;97806.31;;;19.86;73.29
929;BME280;451;47.988;7.842;2023-08-30T08:37:09;97824.28;;;19.57;71.89
929;BME280;451;47.988;7.842;2023-08-30T08:46:13;97859.78;;;20.73;70.44
929;BME280;451;47.988;7.842;2023-08-30T08:55:18;97842.41;;;20.48;73.21
929;BME280;451;47.988;7.842;2023-08-30T09:04:24;97826.66;;;21.22;69.92
929;BME280;451;47.988;7.842;2023-08-30T09:13:27;97853.28;;;21.76;71.24
929;BME280;451;47.988;7.842;2023-08-30T09:22:37;97863.19;;;21.44;74.41
929;BME280;451;47.988;7.842;2023-08-30T09:31:41;97873.00;;;21.65;75.04
929;BME280;451;47.988;7.842;2023-08-30T09:40:45;97873.25;;;21.95;70.57
929;BME280;451;47.988;7.842;2023-08-30T09:49:49;97810.97;;;21.09;72.09
929;BME280;451;47.988;7.842;2023-08-30T09:58:56;97875.72;;;21.70;70.79
929;BME280;451;47.988;7.842;2023-08-30T10:08:01;97840.66;;;22.03;68.64
929;BME280;451;47.988;7.842;2023-08-30T10:17:07;97800.63;;;22.39;64.35
929;BME280;451;47.988;7.842;2023-08-30T10:26:12;97838.09;;;23.11;63.72
929;BME280;451;47.988;7.842;2023-08-30T10:35:19;97839.78;;;23.48;61.58
929;BME280;451;47.988;7.842;2023-08-30T10:44:23;97827.38;;;23.11;61.67
929;BME280;451;47.988;7.842;2023-08-30T10:53:30;97823.38;;;23.29;59.88
929;BME280;451;47.988;7.842;2023-08-30T11:02:33;97816.41;;;23.68;59.43
929;BME280;451;47.988;7.842;2023-08-30T11:11:38;97811.22;;;24.12;55.43
929;BME280;451;47.988;7.842;2023-08-30T11:20:42;97802.44;;;23.16;58.00
929;BME280;451;47.988;7.842;2023-08-30T11:29:46;97746.00;;;22.50;56.84
929;BME280;451;47.988;7.842;2023-08-30T11:38:50;97777.75;;;23.19;59.11
929;BME280;451;47.988;7.842;2023-08-30T11:47:54;97777.59;;;22.43;60.14
929;BME280;451;47.988;7.842;2023-08-30T11:56:58;97773.44;;;22.77;59.01
929;BME280;451;47.988;7.842;2023-08-30T12:06:09;97773.97;;;23.76;55.23
929;BME280;451;47.988;7.842;2023-08-30T12:15:13;97768.94;;;24.48;55.10
929;BME280;451;47.988;7.842;2023-08-30T12:24:19;97749.84;;;23.65;55.32
929;BME280;451;47.988;7.842;2023-08-30T12:33:25;97745.13;;;24.22;53.37
929;BME280;451;47.988;7.842;2023-08-30T12:42:31;97737.50;;;25.22;50.37
929;BME280;451;47.988;7.842;2023-08-30T12:51:34;97729.44;;;25.51;49.88
929;BME280;451;47.988;7.842;2023-08-30T13:00:39;97733.16;;;25.60;49.87
929;BME280;451;47.988;7.842;2023-08-30T13:09:42;97736.94;;;24.47;52.83
929;BME280;451;47.988;7.842;2023-08-30T13:18:47;97748.50;;;24.47;53.63
929;BME280;451;47.988;7.842;2023-08-30T13:27:52;97727.44;;;24.65;53.34
929;BME280;451;47.988;7.842;2023-08-30T13:36:58;97725.88;;;25.84;49.20
929;BME280;451;47.988;7.842;2023-08-30T13:46:01;97703.28;;;25.27;50.80
929;BME280;451;47.988;7.842;2023-08-30T13:55:07;97712.59;;;25.40;50.58
929;BME280;451;47.988;7.842;2023-08-30T14:04:13;97713.47;;;25.30;50.10
929;BME280;451;47.988;7.842;2023-08-30T14:13:18;97705.09;;;24.64;49.50
929;BME280;451;47.988;7.842;2023-08-30T14:22:21;97684.34;;;23.71;51.03
929;BME280;451;47.988;7.842;2023-08-30T14:31:26;97746.91;;;23.52;54.79
929;BME280;451;47.988;7.842;2023-08-30T14:40:31;97709.06;;;23.38;54.00
929;BME280;451;47.988;7.842;2023-08-30T14:49:36;97727.88;;;23.28;53.96
929;BME280;451;47.988;7.842;2023-08-30T14:58:39;97726.53;;;23.41;54.57
929;BME280;451;47.988;7.842;2023-08-30T15:07:44;97718.56;;;24.05;52.19
929;BME280;451;47.988;7.842;2023-08-30T15:16:47;97718.56;;;24.05;49.77
929;BME280;451;47.988;7.842;2023-08-30T15:25:52;97728.44;;;24.25;50.51
929;BME280;451;47.988;7.842;2023-08-30T15:34:55;97719.78;;;24.38;48.81
929;BME280;451;47.988;7.842;2023-08-30T15:43:59;97710.38;;;24.40;49.35
929;BME280;451;47.988;7.842;2023-08-30T15:53:03;97701.66;;;24.59;48.13
929;BME280;451;47.988;7.842;2023-08-30T16:02:07;97708.28;;;24.27;46.75
929;BME280;451;47.988;7.842;2023-08-30T16:11:11;97713.88;;;23.71;48.24
929;BME280;451;47.988;7.842;2023-08-30T16:20:15;97709.91;;;23.28;49.17
929;BME280;451;47.988;7.842;2023-08-30T16:29:18;97695.69;;;22.92;50.97
929;BME280;451;47.988;7.842;2023-08-30T16:38:23;97644.72;;;22.32;51.62
929;BME280;451;47.988;7.842;2023-08-30T16:47:27;97719.28;;;22.80;51.92
929;BME280;451;47.988;7.842;2023-08-30T16:56:32;97712.25;;;22.49;52.83
929;BME280;451;47.988;7.842;2023-08-30T17:05:37;97721.31;;;22.23;53.24
929;BME280;451;47.988;7.842;2023-08-30T17:14:43;97672.06;;;21.66;53.75
929;BME280;451;47.988;7.842;2023-08-30T17:23:46;97681.72;;;21.25;55.11
929;BME280;451;47.988;7.842;2023-08-30T17:32:51;97740.88;;;21.02;56.76
929;BME280;451;47.988;7.842;2023-08-30T17:41:54;97750.09;;;20.84;57.45
929;BME280;451;47.988;7.842;2023-08-30T17:50:59;97762.19;;;20.92;57.66
929;BME280;451;47.988;7.842;2023-08-30T18:00:04;97769.88;;;20.35;58.39
929;BME280;451;47.988;7.842;2023-08-30T18:09:15;97722.75;;;20.02;59.03
929;BME280;451;47.988;7.842;2023-08-30T18:18:18;97778.56;;;20.47;59.26
929;BME280;451;47.988;7.842;2023-08-30T18:27:23;97803.41;;;20.31;60.66
929;BME280;451;47.988;7.842;2023-08-30T18:36:26;97800.75;;;20.31;62.82
929;BME280;451;47.988;7.842;2023-08-30T18:45:32;97812.50;;;20.30;62.96
929;BME280;451;47.988;7.842;2023-08-30T18:54:36;97817.88;;;20.13;64.42
929;BME280;451;47.988;7.842;2023-08-30T19:03:46;97841.88;;;19.74;66.01
929;BME280;451;47.988;7.842;2023-08-30T19:12:50;97856.69;;;19.65;66.39
929;BME280;451;47.988;7.842;2023-08-30T19:21:54;97838.34;;;19.69;66.78
929;BME280;451;47.988;7.842;2023-08-30T19:30:57;97853.84;;;19.55;67.05
929;BME280;451;47.988;7.842;2023-08-30T19:40:02;97859.75;;;19.41;67.98
929;BME280;451;47.988;7.842;2023-08-30T19:49:06;97856.00;;;19.25;67.99
929;BME280;451;47.988;7.842;2023-08-30T19:58:10;97856.56;;;19.44;67.20
929;BME280;451;47.988;7.842;2023-08-30T20:07:14;97845.59;;;19.23;67.66
929;BME280;451;47.988;7.842;2023-08-30T20:16:19;97865.63;;;19.43;67.58
929;BME280;451;47.988;7.842;2023-08-30T20:25:22;97818.25;;;19.00;68.17
929;BME280;451;47.988;7.842;2023-08-30T20:34:26;97871.47;;;19.56;66.56
929;BME280;451;47.988;7.842;2023-08-30T20:43:30;97878.88;;;19.38;67.43
929;BME280;451;47.988;7.842;2023-08-30T20:52:34;97889.09;;;19.57;67.36
929;BME280;451;47.988;7.842;2023-08-30T21:01:37;97889.03;;;19.52;66.60
929;BME280;451;47.988;7.842;2023-08-30T21:10:42;97903.81;;;19.77;67.09
929;BME280;451;47.988;7.842;2023-08-30T21:19:45;97931.78;;;18.26;91.21
929;BME280;451;47.988;7.842;2023-08-30T21:28:50;97946.38;;;18.23;97.03
929;BME280;451;47.988;7.842;2023-08-30T21:37:54;97986.31;;;16.92;100.00
929;BME280;451;47.988;7.842;2023-08-30T21:46:58;98003.91;;;16.43;100.00
929;BME280;451;47.988;7.842;2023-08-30T21:56:03;97997.03;;;15.93;100.00
929;BME280;451;47.988;7.842;2023-08-30T22:05:08;98020.94;;;15.55;100.00
929;BME280;451;47.988;7.842;2023-08-30T22:14:12;98022.00;;;15.79;100.00
929;BME280;451;47.988;7.842;2023-08-30T22:23:17;98049.47;;;15.91;100.00
929;BME280;451;47.988;7.842;2023-08-30T22:32:21;98021.41;;;15.32;100.00
929;BME280;451;47.988;7.842;2023-08-30T22:41:25;98048.28;;;15.42;100.00
929;BME280;451;47.988;7.842;2023-08-30T22:50:28;97977.88;;;15.21;100.00
929;BME280;451;47.988;7.842;2023-08-30T22:59:33;98031.75;;;15.85;100.00
929;BME280;451;47.988;7.842;2023-08-30T23:08:36;98055.59;;;16.16;100.00
929;BME280;451;47.988;7.842;2023-08-30T23:17:42;98045.13;;;15.96;100.00
929;BME280;451;47.988;7.842;2023-08-30T23:26:46;98023.63;;;15.80;100.00
929;BME280;451;47.988;7.842;2023-08-30T23:35:50;98030.38;;;15.76;100.00
929;BME280;451;47.988;7.842;2023-08-30T23:44:54;98025.97;;;15.94;100.00
929;BME280;451;47.988;7.842;2023-08-30T23:53:58;97972.56;;;15.28;100.00
